Powers, Michigan
Current Conditions -  °F | °C
As of 4:35 PM on Monday 20 Oct 2014 (Local Time) from KESC Reporting Station
Overcast Overcast  
Wind Chill:   Ceiling: 1900
Heat Index:   Visibility: 10mi
Dew Point:   Wind: 7mph
Humidity: 76%   Direction: 340°NNW
Pressure: 29.91"   Gusts: NA
Location:  45.69°N, 87.53°W
Report Text: KESC 202135Z AUTO 34006KT 10SM OVC019 08/04 A2991 RMK AO1
Loading
Personal Weather Stations






























Interactive Weather Map
Tropical Storm Tracking
New forecast layout! Learn more

10-Day Weather Forecast

Advertisements
Track Severe Weather on mobile